Terminal Aerodrome Forecast
Issued by NWS Wilmington, OH

Current Version | Previous Version | Text Only | Print | Product List | Glossary Off
Versions: 1 2 3 4 5 6 7 8 9 10 11 12 13 14

000
FTUS41 KILN 232300
TAFCMH
TAF
KCMH 232325Z 2400/2424 VRB02KT P6SM FEW250
     FM241300 19007KT P6SM BKN250
     FM241900 22014G22KT P6SM SCT150=

USA.gov is the U.S. government's official web portal to all federal, state and local government web resources and services.